createdAt,value
2023-06-21T00:01:41.949Z,12.75
2023-06-21T00:04:09.364Z,12.38
2023-06-21T00:06:36.262Z,13.95
2023-06-21T00:09:04.572Z,10.68
2023-06-21T00:11:32.456Z,11.68
2023-06-21T00:13:59.349Z,11.85
2023-06-21T00:16:26.133Z,13.38
2023-06-21T00:18:52.841Z,12.57
2023-06-21T00:21:19.559Z,11.05
2023-06-21T00:23:46.524Z,12.23
2023-06-21T00:26:13.299Z,14.70
2023-06-21T00:28:39.976Z,12.57
2023-06-21T00:31:09.978Z,11.90
2023-06-21T00:33:38.125Z,11.05
2023-06-21T00:36:05.936Z,11.98
2023-06-21T00:38:36.133Z,10.07
2023-06-21T00:41:06.538Z,10.95
2023-06-21T00:43:33.665Z,10.73
2023-06-21T00:46:01.216Z,13.93
2023-06-21T00:48:30.730Z,11.18
2023-06-21T00:50:59.536Z,12.38
2023-06-21T00:53:28.600Z,13.75
2023-06-21T00:55:59.616Z,11.65
2023-06-21T00:58:26.404Z,14.50
2023-06-21T01:00:54.298Z,12.02
2023-06-21T01:03:22.604Z,11.13
2023-06-21T01:06:15.323Z,9.45
2023-06-21T01:09:01.474Z,9.52
2023-06-21T01:11:32.316Z,8.73
2023-06-21T01:14:23.877Z,11.57
2023-06-21T01:16:53.600Z,10.70
2023-06-21T01:19:49.291Z,9.23
2023-06-21T01:22:20.732Z,11.45
2023-06-21T01:25:01.936Z,12.52
2023-06-21T01:27:58.013Z,9.85
2023-06-21T01:30:29.869Z,9.27
2023-06-21T01:32:57.299Z,11.65
2023-06-21T01:35:25.393Z,10.98
2023-06-21T01:37:53.778Z,11.15
2023-06-21T01:40:21.033Z,9.93
2023-06-21T01:42:47.888Z,12.93
2023-06-21T01:45:14.674Z,11.90
2023-06-21T01:47:43.881Z,10.38
2023-06-21T01:50:12.141Z,11.32
2023-06-21T01:52:40.091Z,10.27
2023-06-21T01:55:08.338Z,9.02
2023-06-21T01:57:38.418Z,9.88
2023-06-21T02:00:18.033Z,9.93
2023-06-21T02:02:50.678Z,11.27
2023-06-21T02:05:18.443Z,9.88
2023-06-21T02:07:46.688Z,10.73
2023-06-21T02:10:32.729Z,10.15
2023-06-21T02:12:59.757Z,10.98
2023-06-21T02:15:26.397Z,11.00
2023-06-21T02:17:53.377Z,13.77
2023-06-21T02:20:23.326Z,9.57
2023-06-21T02:22:50.360Z,8.93
2023-06-21T02:25:18.028Z,10.57
2023-06-21T02:27:44.816Z,12.50
2023-06-21T02:30:12.669Z,9.55
2023-06-21T02:32:39.725Z,9.77
2023-06-21T02:35:07.133Z,8.10
2023-06-21T02:37:33.872Z,8.20
2023-06-21T02:40:00.659Z,8.40
2023-06-21T02:42:28.747Z,9.38
2023-06-21T02:44:55.452Z,10.93
2023-06-21T02:47:22.392Z,10.82
2023-06-21T02:49:49.178Z,8.70
2023-06-21T02:52:15.849Z,10.73
2023-06-21T02:55:03.877Z,10.20
2023-06-21T02:57:30.999Z,9.82
2023-06-21T03:00:00.379Z,10.65
2023-06-21T03:02:34.802Z,8.90
2023-06-21T03:05:02.388Z,11.57
2023-06-21T03:07:29.152Z,11.70
2023-06-21T03:09:56.556Z,10.23
2023-06-21T03:12:23.641Z,8.57
2023-06-21T03:14:50.781Z,10.85
2023-06-21T03:17:18.823Z,9.60
2023-06-21T03:19:45.527Z,8.50
2023-06-21T03:22:13.370Z,9.93
2023-06-21T03:24:41.515Z,10.20
2023-06-21T03:27:08.516Z,11.50
2023-06-21T03:29:35.727Z,9.18
2023-06-21T03:32:02.537Z,9.85
2023-06-21T03:34:30.274Z,10.68
2023-06-21T03:36:57.009Z,14.18
2023-06-21T03:39:26.149Z,11.45
2023-06-21T03:41:53.497Z,9.75
2023-06-21T03:44:20.180Z,11.30
2023-06-21T03:46:46.987Z,10.55
2023-06-21T03:49:13.683Z,10.48
2023-06-21T03:51:40.759Z,13.25
2023-06-21T03:54:07.664Z,9.55
2023-06-21T03:56:34.369Z,9.70
2023-06-21T03:59:01.392Z,10.75
2023-06-21T04:01:28.304Z,11.93
2023-06-21T04:03:55.071Z,9.90
2023-06-21T04:06:21.744Z,12.50
2023-06-21T04:08:48.729Z,11.30
2023-06-21T04:11:16.339Z,11.25
2023-06-21T04:13:45.144Z,11.88
2023-06-21T04:16:11.821Z,10.98
2023-06-21T04:18:38.524Z,10.98
2023-06-21T04:21:05.286Z,13.98
2023-06-21T04:23:32.140Z,11.68
2023-06-21T04:25:58.938Z,9.88
2023-06-21T04:28:26.694Z,11.68
2023-06-21T04:30:56.446Z,11.18
2023-06-21T04:33:23.421Z,12.70
2023-06-21T04:35:50.256Z,9.38
2023-06-21T04:38:16.945Z,10.13
2023-06-21T04:40:44.889Z,11.05
2023-06-21T04:43:12.146Z,8.23
2023-06-21T04:45:38.865Z,8.95
2023-06-21T04:48:06.275Z,8.60
2023-06-21T04:50:33.342Z,10.07
2023-06-21T04:53:00.828Z,11.05
2023-06-21T04:55:29.279Z,10.80
2023-06-21T04:57:57.506Z,12.35
2023-06-21T05:00:24.196Z,13.55
2023-06-21T05:02:51.129Z,9.77
2023-06-21T05:05:18.059Z,12.10
2023-06-21T05:07:44.977Z,10.15
2023-06-21T05:10:11.957Z,13.13
2023-06-21T05:12:39.290Z,11.18
2023-06-21T05:15:07.073Z,13.00
2023-06-21T05:17:34.887Z,9.55
2023-06-21T05:20:04.098Z,13.55
2023-06-21T05:22:31.398Z,11.60
2023-06-21T05:24:58.259Z,12.40
2023-06-21T05:27:25.079Z,13.85
2023-06-21T05:29:52.762Z,11.75
2023-06-21T05:32:19.938Z,11.07
2023-06-21T05:34:46.725Z,9.40
2023-06-21T05:37:13.462Z,11.25
2023-06-21T05:39:40.090Z,10.95
2023-06-21T05:42:06.956Z,13.40
2023-06-21T05:44:34.928Z,11.80
2023-06-21T05:47:01.724Z,12.10
2023-06-21T05:49:28.497Z,16.00
2023-06-21T05:51:55.231Z,12.95
2023-06-21T05:54:22.310Z,13.73
2023-06-21T05:56:50.734Z,10.45
2023-06-21T05:59:20.171Z,13.23
2023-06-21T06:01:47.764Z,11.32
2023-06-21T06:04:14.672Z,10.10
2023-06-21T06:06:42.724Z,10.05
2023-06-21T06:09:10.758Z,13.05
2023-06-21T06:11:37.595Z,11.32
2023-06-21T06:14:04.524Z,13.50
2023-06-21T06:16:31.337Z,13.07
2023-06-21T06:18:58.063Z,13.57
2023-06-21T06:21:43.716Z,15.18
2023-06-21T06:24:10.507Z,13.02
2023-06-21T06:26:37.623Z,13.93
2023-06-21T06:29:04.407Z,12.13
2023-06-21T06:31:31.552Z,10.77
2023-06-21T06:33:58.621Z,9.35
2023-06-21T06:36:25.325Z,10.75
2023-06-21T06:38:53.545Z,9.68
2023-06-21T06:41:20.842Z,8.50
2023-06-21T06:43:47.550Z,10.32
2023-06-21T06:46:32.960Z,10.05
2023-06-21T06:48:59.711Z,8.13
2023-06-21T06:51:28.886Z,9.98
2023-06-21T06:53:55.723Z,9.25
2023-06-21T06:56:22.382Z,9.23
2023-06-21T06:58:49.273Z,12.27
2023-06-21T07:01:16.406Z,10.00
2023-06-21T07:03:43.223Z,8.32
2023-06-21T07:06:10.037Z,9.43
2023-06-21T07:08:36.956Z,8.50
2023-06-21T07:11:03.614Z,7.70
2023-06-21T07:13:30.404Z,8.82
2023-06-21T07:15:57.120Z,12.50
2023-06-21T07:18:23.852Z,13.30
2023-06-21T07:20:50.523Z,13.73
2023-06-21T07:23:17.441Z,9.05
2023-06-21T07:25:44.209Z,11.50
2023-06-21T07:28:10.912Z,9.52
2023-06-21T07:30:38.557Z,7.82
2023-06-21T07:33:09.536Z,9.35
2023-06-21T07:35:36.449Z,8.65
2023-06-21T07:38:04.670Z,13.15
2023-06-21T07:40:31.971Z,12.00
2023-06-21T07:42:58.657Z,8.45
2023-06-21T07:45:25.952Z,8.15
2023-06-21T07:47:52.708Z,8.88
2023-06-21T07:50:22.475Z,8.57
2023-06-21T07:52:50.452Z,8.35
2023-06-21T07:55:17.164Z,8.98
2023-06-21T07:57:44.792Z,7.57
2023-06-21T08:00:14.701Z,7.70
2023-06-21T08:02:51.012Z,8.80
2023-06-21T08:05:18.219Z,8.40
2023-06-21T08:07:45.267Z,9.95
2023-06-21T08:10:13.544Z,8.43
2023-06-21T08:12:40.408Z,9.45
2023-06-21T08:15:07.699Z,8.65
2023-06-21T08:17:34.699Z,8.40
2023-06-21T08:20:01.678Z,11.88
2023-06-21T08:22:28.493Z,9.82
2023-06-21T08:24:57.632Z,9.55
2023-06-21T08:27:24.769Z,9.20
2023-06-21T08:29:51.731Z,6.57
2023-06-21T08:32:18.897Z,11.52
2023-06-21T08:34:45.789Z,9.82
2023-06-21T08:37:12.671Z,6.95
2023-06-21T08:39:39.450Z,7.25
2023-06-21T08:42:06.698Z,7.93
2023-06-21T08:44:33.666Z,7.15
2023-06-21T08:47:02.371Z,8.68
2023-06-21T08:49:30.781Z,8.50
2023-06-21T08:52:00.653Z,7.82
2023-06-21T08:54:30.916Z,6.57
2023-06-21T08:57:02.822Z,9.98
2023-06-21T08:59:36.796Z,9.18
2023-06-21T09:02:06.669Z,6.78
2023-06-21T09:04:42.254Z,7.43
2023-06-21T09:07:09.764Z,7.80
2023-06-21T09:09:38.134Z,8.98
2023-06-21T09:12:05.457Z,8.90
2023-06-21T09:14:33.098Z,8.20
2023-06-21T09:17:01.370Z,8.60
2023-06-21T09:19:28.745Z,9.40
2023-06-21T09:21:58.616Z,7.65
2023-06-21T09:24:25.392Z,13.73
2023-06-21T09:26:52.282Z,7.43
2023-06-21T09:29:19.910Z,9.60
2023-06-21T09:31:46.734Z,9.30
2023-06-21T09:34:15.228Z,7.35
2023-06-21T09:36:42.212Z,7.72
2023-06-21T09:39:10.830Z,9.05
2023-06-21T09:41:37.715Z,7.45
2023-06-21T09:44:04.806Z,7.93
2023-06-21T09:46:31.778Z,10.65
2023-06-21T09:49:11.459Z,9.20
2023-06-21T09:51:46.913Z,9.05
2023-06-21T09:54:13.690Z,9.68
2023-06-21T09:56:40.928Z,8.70
2023-06-21T09:59:20.830Z,10.85
2023-06-21T10:01:51.793Z,8.80
2023-06-21T10:04:19.037Z,9.57
2023-06-21T10:06:50.533Z,6.85
2023-06-21T10:09:18.014Z,9.63
2023-06-21T10:11:45.342Z,10.10
2023-06-21T10:14:26.036Z,15.25
2023-06-21T10:16:55.089Z,8.90
2023-06-21T10:19:23.922Z,9.35
2023-06-21T10:21:58.179Z,7.87
2023-06-21T10:24:27.293Z,7.05
2023-06-21T10:26:55.226Z,8.57
2023-06-21T10:29:25.006Z,8.15
2023-06-21T10:31:54.575Z,7.72
2023-06-21T10:34:25.696Z,6.82
2023-06-21T10:37:01.779Z,6.28
2023-06-21T10:39:33.291Z,9.38
2023-06-21T10:42:01.173Z,8.32
2023-06-21T10:44:29.977Z,9.00
2023-06-21T10:47:00.085Z,6.90
2023-06-21T10:49:29.534Z,7.78
2023-06-21T10:51:58.121Z,7.68
2023-06-21T10:54:26.545Z,9.75
2023-06-21T10:56:54.568Z,8.50
2023-06-21T10:59:25.174Z,9.10
2023-06-21T11:01:53.118Z,6.93
2023-06-21T11:04:20.131Z,9.10
2023-06-21T11:06:47.075Z,7.68
2023-06-21T11:09:17.922Z,7.18
2023-06-21T11:11:54.749Z,7.82
2023-06-21T11:14:33.685Z,6.18
2023-06-21T11:17:12.644Z,10.20
2023-06-21T11:19:39.954Z,8.25
2023-06-21T11:22:25.144Z,10.68
2023-06-21T11:25:01.815Z,7.25
2023-06-21T11:27:28.834Z,7.93
2023-06-21T11:30:11.474Z,24.92
2023-06-21T11:32:39.180Z,10.40
2023-06-21T11:35:09.660Z,13.75
2023-06-21T11:37:48.915Z,10.18
2023-06-21T11:40:26.346Z,9.93
2023-06-21T11:42:53.835Z,7.88
2023-06-21T11:45:33.999Z,8.07
2023-06-21T11:50:50.310Z,7.82
2023-06-21T11:53:29.890Z,8.02
2023-06-21T11:56:03.026Z,8.50
2023-06-21T11:58:30.457Z,9.30
2023-06-21T12:00:57.617Z,11.68
2023-06-21T12:03:26.931Z,9.90
2023-06-21T12:05:56.646Z,11.15
2023-06-21T12:08:28.044Z,8.50
2023-06-21T12:10:58.924Z,7.43
2023-06-21T12:13:26.306Z,8.98
2023-06-21T12:15:58.018Z,10.18
2023-06-21T12:18:27.500Z,7.60
2023-06-21T12:21:10.518Z,9.93
2023-06-21T12:23:37.733Z,9.55
2023-06-21T12:26:05.856Z,9.07
2023-06-21T12:28:34.004Z,10.85
2023-06-21T12:31:08.733Z,10.73
2023-06-21T12:33:44.001Z,13.07
2023-06-21T12:36:24.543Z,9.32
2023-06-21T12:38:56.815Z,8.02
2023-06-21T12:41:25.689Z,11.20
2023-06-21T12:43:54.730Z,10.45
2023-06-21T12:46:22.888Z,12.60
2023-06-21T12:49:00.588Z,8.32
2023-06-21T12:51:31.205Z,7.63
2023-06-21T12:54:06.433Z,8.18
2023-06-21T12:56:35.290Z,10.00
2023-06-21T12:59:03.562Z,8.80
2023-06-21T13:01:32.563Z,9.43
2023-06-21T13:04:01.204Z,9.10
2023-06-21T13:06:28.375Z,9.05
2023-06-21T13:08:58.574Z,8.15
2023-06-21T13:11:26.469Z,6.55
2023-06-21T13:13:53.481Z,15.10
2023-06-21T13:16:20.524Z,12.18
2023-06-21T13:18:48.752Z,11.90
2023-06-21T13:21:17.625Z,12.00
2023-06-21T13:23:45.880Z,8.75
2023-06-21T13:26:13.073Z,10.98
2023-06-21T13:28:39.850Z,10.35
2023-06-21T13:31:06.619Z,9.75
2023-06-21T13:33:33.288Z,7.57
2023-06-21T13:36:18.536Z,10.50
2023-06-21T13:38:45.311Z,9.27
2023-06-21T13:41:12.547Z,7.63
2023-06-21T13:43:39.415Z,9.85
2023-06-21T13:46:06.274Z,12.32
2023-06-21T13:48:33.129Z,7.22
2023-06-21T13:50:59.908Z,11.80
2023-06-21T13:53:28.134Z,12.43
2023-06-21T13:55:54.873Z,9.23
2023-06-21T13:58:22.025Z,10.40
2023-06-21T14:00:49.118Z,7.43
2023-06-21T14:03:16.129Z,11.05
2023-06-21T14:05:43.226Z,10.13
2023-06-21T14:08:09.943Z,9.95
2023-06-21T14:10:36.792Z,10.90
2023-06-21T14:13:03.631Z,10.63
2023-06-21T14:15:30.315Z,11.10
2023-06-21T14:17:58.469Z,11.70
2023-06-21T14:20:25.446Z,8.60
2023-06-21T14:22:52.232Z,7.30
2023-06-21T14:25:19.001Z,12.70
2023-06-21T14:27:45.675Z,9.98
2023-06-21T14:30:13.036Z,11.63
2023-06-21T14:32:39.793Z,9.38
2023-06-21T14:35:07.232Z,6.97
2023-06-21T14:37:33.990Z,9.13
2023-06-21T14:40:03.675Z,8.65
2023-06-21T14:42:30.671Z,9.48
2023-06-21T14:44:57.302Z,10.65
2023-06-21T14:47:24.066Z,11.05
2023-06-21T14:49:53.292Z,9.80
2023-06-21T14:52:20.620Z,10.40
2023-06-21T14:54:49.338Z,12.90
2023-06-21T14:57:16.891Z,10.48
2023-06-21T14:59:45.551Z,11.48
2023-06-21T15:02:12.344Z,8.07
2023-06-21T15:04:39.804Z,9.93
2023-06-21T15:07:13.484Z,9.02
2023-06-21T15:09:40.314Z,12.85
2023-06-21T15:12:09.369Z,9.68
2023-06-21T15:14:36.245Z,10.57
2023-06-21T15:17:03.009Z,13.52
2023-06-21T15:19:29.727Z,11.32
2023-06-21T15:21:56.452Z,8.10
2023-06-21T15:24:23.190Z,10.77
2023-06-21T15:26:49.932Z,13.60
2023-06-21T15:29:16.757Z,12.13
2023-06-21T15:31:43.614Z,10.30
2023-06-21T15:34:12.400Z,12.90
2023-06-21T15:36:40.660Z,15.25
2023-06-21T15:39:08.473Z,8.40
2023-06-21T15:41:35.999Z,11.68
2023-06-21T15:44:03.040Z,10.98
2023-06-21T15:46:30.925Z,10.38
2023-06-21T15:48:58.492Z,10.35
2023-06-21T15:51:25.553Z,8.18
2023-06-21T15:53:56.666Z,8.98
2023-06-21T15:56:24.921Z,10.18
2023-06-21T15:58:52.170Z,11.95
2023-06-21T16:01:19.645Z,14.00
2023-06-21T16:03:48.242Z,7.75
2023-06-21T16:06:16.008Z,9.82
2023-06-21T16:08:43.357Z,10.70
2023-06-21T16:11:13.408Z,10.77
2023-06-21T16:13:47.553Z,8.43
2023-06-21T16:16:16.341Z,9.93
2023-06-21T16:18:45.825Z,8.65
2023-06-21T16:21:14.145Z,11.73
2023-06-21T16:23:41.425Z,16.73
2023-06-21T16:26:08.245Z,8.15
2023-06-21T16:28:35.554Z,11.00
2023-06-21T16:31:02.452Z,13.80
2023-06-21T16:33:29.248Z,10.05
2023-06-21T16:35:56.280Z,11.50
2023-06-21T16:38:23.421Z,13.90
2023-06-21T16:40:50.561Z,10.15
2023-06-21T16:43:17.928Z,9.38
2023-06-21T16:45:44.963Z,8.70
2023-06-21T16:48:11.890Z,9.43
2023-06-21T16:50:38.711Z,11.55
2023-06-21T16:53:05.448Z,10.93
2023-06-21T16:55:32.244Z,13.43
2023-06-21T16:57:59.200Z,11.73
2023-06-21T17:00:26.364Z,12.18
2023-06-21T17:02:54.659Z,9.55
2023-06-21T17:05:25.634Z,12.93
2023-06-21T17:07:52.963Z,10.63
2023-06-21T17:10:20.584Z,11.07
2023-06-21T17:12:47.683Z,11.57
2023-06-21T17:15:15.250Z,10.82
2023-06-21T17:17:43.268Z,11.27
2023-06-21T17:20:10.839Z,12.55
2023-06-21T17:22:37.754Z,12.10
2023-06-21T17:25:05.269Z,11.48
2023-06-21T17:27:31.905Z,11.02
2023-06-21T17:29:58.744Z,9.75
2023-06-21T17:32:25.858Z,9.10
2023-06-21T17:34:52.840Z,14.40
2023-06-21T17:37:19.667Z,12.38
2023-06-21T17:39:47.028Z,16.08
2023-06-21T17:42:13.739Z,10.57
2023-06-21T17:44:40.700Z,10.93
2023-06-21T17:47:07.512Z,11.45
2023-06-21T17:49:34.158Z,9.13
2023-06-21T17:52:00.825Z,13.77
2023-06-21T17:54:27.507Z,10.05
2023-06-21T17:56:54.157Z,10.93
2023-06-21T17:59:21.032Z,13.48
2023-06-21T18:01:48.407Z,16.10
2023-06-21T18:04:15.416Z,14.73
2023-06-21T18:06:42.874Z,11.63
2023-06-21T18:09:09.565Z,11.45
2023-06-21T18:11:40.166Z,13.13
2023-06-21T18:16:33.874Z,14.63
2023-06-21T18:19:00.577Z,9.85
2023-06-21T18:21:27.363Z,11.02
2023-06-21T18:23:54.133Z,11.02
2023-06-21T18:26:20.719Z,11.65
2023-06-21T18:28:47.561Z,10.85
2023-06-21T18:31:14.218Z,13.23
2023-06-21T18:33:40.988Z,13.68
2023-06-21T18:36:07.638Z,11.40
2023-06-21T18:38:34.327Z,12.82
2023-06-21T18:41:01.070Z,14.70
2023-06-21T18:43:27.879Z,14.23
2023-06-21T18:45:54.580Z,13.88
2023-06-21T18:48:21.374Z,12.88
2023-06-21T18:50:48.140Z,12.70
2023-06-21T18:53:14.972Z,12.30
2023-06-21T18:55:41.641Z,12.45
2023-06-21T18:58:08.423Z,15.07
2023-06-21T19:00:35.066Z,16.10
2023-06-21T19:03:04.391Z,14.98
2023-06-21T19:05:31.621Z,14.95
2023-06-21T19:07:58.307Z,13.77
2023-06-21T19:10:25.046Z,15.88
2023-06-21T19:12:51.726Z,17.00
2023-06-21T19:15:18.442Z,14.52
2023-06-21T19:17:46.187Z,18.35
2023-06-21T19:20:13.195Z,20.33
2023-06-21T19:22:41.028Z,14.70
2023-06-21T19:25:08.729Z,13.55
2023-06-21T19:27:35.761Z,14.77
2023-06-21T19:30:02.456Z,21.45
2023-06-21T19:32:29.199Z,14.40
2023-06-21T19:34:55.995Z,17.13
2023-06-21T19:37:22.648Z,15.27
2023-06-21T19:39:50.404Z,14.07
2023-06-21T19:42:17.357Z,20.55
2023-06-21T19:44:45.837Z,15.75
2023-06-21T19:47:12.826Z,13.93
2023-06-21T19:49:39.569Z,14.82
2023-06-21T19:52:07.084Z,15.68
2023-06-21T19:54:34.023Z,17.20
2023-06-21T19:57:00.777Z,14.48
2023-06-21T19:59:27.665Z,15.15
2023-06-21T20:01:54.568Z,16.02
2023-06-21T20:04:21.465Z,13.18
2023-06-21T20:06:48.366Z,14.23
2023-06-21T20:09:14.997Z,13.75
2023-06-21T20:11:41.721Z,14.13
2023-06-21T20:14:08.321Z,14.23
2023-06-21T20:16:34.998Z,16.83
2023-06-21T20:19:02.562Z,13.18
2023-06-21T20:21:29.427Z,11.60
2023-06-21T20:23:56.300Z,16.35
2023-06-21T20:26:23.128Z,13.07
2023-06-21T20:28:49.858Z,13.98
2023-06-21T20:31:16.895Z,13.82
2023-06-21T20:33:43.660Z,13.73
2023-06-21T20:36:10.439Z,19.98
2023-06-21T20:38:37.214Z,17.55
2023-06-21T20:41:07.424Z,16.65
2023-06-21T20:43:36.720Z,14.43
2023-06-21T20:46:04.927Z,12.48
2023-06-21T20:48:32.589Z,14.50
2023-06-21T20:50:59.251Z,12.15
2023-06-21T20:53:30.452Z,17.40
2023-06-21T20:56:01.526Z,14.35
2023-06-21T21:00:56.042Z,12.85
2023-06-21T21:03:23.383Z,11.32
2023-06-21T21:05:50.559Z,12.50
2023-06-21T21:08:17.267Z,18.27
2023-06-21T21:10:44.146Z,15.55
2023-06-21T21:13:11.069Z,13.23
2023-06-21T21:15:38.253Z,13.73
2023-06-21T21:18:05.230Z,15.27
2023-06-21T21:20:32.108Z,17.90
2023-06-21T21:22:58.814Z,13.55
2023-06-21T21:25:26.314Z,14.45
2023-06-21T21:27:53.130Z,16.55
2023-06-21T21:30:19.787Z,16.08
2023-06-21T21:32:46.621Z,14.68
2023-06-21T21:35:13.326Z,11.60
2023-06-21T21:37:41.133Z,13.38
2023-06-21T21:40:09.236Z,18.42
2023-06-21T21:42:36.910Z,11.95
2023-06-21T21:45:04.969Z,13.70
2023-06-21T21:47:31.658Z,12.82
2023-06-21T21:49:58.316Z,11.85
2023-06-21T21:52:43.569Z,19.77
2023-06-21T21:55:10.258Z,13.82
2023-06-21T21:57:36.883Z,12.10
2023-06-21T22:00:05.041Z,14.07
2023-06-21T22:02:40.232Z,15.80
2023-06-21T22:05:07.832Z,15.23
2023-06-21T22:07:34.508Z,16.40
2023-06-21T22:10:02.838Z,14.35
2023-06-21T22:12:29.545Z,13.43
2023-06-21T22:14:56.325Z,15.30
2023-06-21T22:17:23.225Z,12.75
2023-06-21T22:19:49.923Z,14.38
2023-06-21T22:22:20.104Z,15.38
2023-06-21T22:24:46.983Z,11.70
2023-06-21T22:27:13.741Z,16.38
2023-06-21T22:29:41.183Z,15.30
2023-06-21T22:32:09.041Z,17.20
2023-06-21T22:34:40.526Z,16.17
2023-06-21T22:37:07.531Z,18.35
2023-06-21T22:39:34.256Z,15.13
2023-06-21T22:42:01.082Z,12.48
2023-06-21T22:44:27.743Z,20.25
2023-06-21T22:46:56.200Z,11.10
2023-06-21T22:49:24.177Z,16.42
2023-06-21T22:51:50.978Z,18.77
2023-06-21T22:54:17.647Z,14.82
2023-06-21T22:56:44.390Z,15.93
2023-06-21T22:59:11.056Z,13.02
2023-06-21T23:01:37.770Z,14.35
2023-06-21T23:04:04.965Z,13.95
2023-06-21T23:06:31.805Z,15.70
2023-06-21T23:08:58.460Z,14.10
2023-06-21T23:11:26.602Z,15.65
2023-06-21T23:13:57.310Z,14.95
2023-06-21T23:16:25.423Z,14.75
2023-06-21T23:18:54.259Z,13.82
2023-06-21T23:21:27.672Z,16.60
2023-06-21T23:23:54.702Z,14.88
2023-06-21T23:26:27.300Z,13.48
2023-06-21T23:28:56.450Z,16.83
2023-06-21T23:31:23.830Z,14.38
2023-06-21T23:33:50.731Z,17.90
2023-06-21T23:36:17.579Z,12.30
2023-06-21T23:38:54.672Z,12.63
2023-06-21T23:41:25.359Z,17.80
2023-06-21T23:44:05.906Z,18.80
2023-06-21T23:46:33.971Z,19.58
2023-06-21T23:49:03.085Z,16.88
2023-06-21T23:51:33.212Z,18.40
2023-06-21T23:54:00.073Z,17.70
2023-06-21T23:56:27.729Z,17.52
2023-06-21T23:58:54.964Z,15.05
